Florencia — IBPD — position and weather

sailwx.info

Track history (hours):
 
Tides and Currents Weather Stations Pressure Air Temp Water Temp Dewpoint Dewpoint Depression Visibility Wind Speed Wind Dir Waves Ship Positions

Florencia

Last reported at 2015-Jun-30 19:13 UTC. Time now 2015-Jun-30 21:21 UTC.
Position N 41°22' E 002°11'.

Length 186 m; draft 6.2 m.

Type: Passenger vessel. MMSI: 247105900.

Date/timePositionNaut miles runAvg speedWind from/ knotsBaromVisibWave heightAir tempDewpointWater temp
2015-Jun-30 19:13N 41°22' E 002°11'0 0.0
2015-Jun-30 16:16N 41°22' E 002°11'4 4.9
2015-Jun-30 15:33N 41°18' E 002°11'1717.0
2015-Jun-30 14:32N 41°25' E 002°32'1919.0
2015-Jun-30 13:33N 41°34' E 002°54'1919.1
2015-Jun-30 12:34N 41°42' E 003°17'2019.8
2015-Jun-30 11:33N 41°51' E 003°41'1919.5
2015-Jun-30 10:33N 41°60' E 004°04'1919.1
2015-Jun-30 09:33N 42°08' E 004°27'1919.3
2015-Jun-30 08:33N 42°17' E 004°51'2019.7
2015-Jun-30 07:33N 42°26' E 005°14'2019.7
2015-Jun-30 06:33N 42°34' E 005°38'2019.9
2015-Jun-30 05:33N 42°44' E 006°02'6820.2
2015-Jun-30 02:12N 43°22' E 007°18'1420.3
2015-Jun-30 01:29N 43°31' E 007°34'1920.3
2015-Jun-30 00:33N 43°43' E 007°55'2120.6
2015-Jun-29 23:33N 43°56' E 008°16'2020.2
2015-Jun-29 22:33N 44°13' E 008°31'5 5.1
2015-Jun-29 21:32N 44°19' E 008°30'0 0.0
2015-Jun-29 20:32N 44°19' E 008°30'0 0.0
2015-Jun-29 19:32N 44°19' E 008°30'0 0.0
2015-Jun-29 18:32N 44°19' E 008°30'0 0.0
2015-Jun-29 17:32N 44°19' E 008°30'0 0.0
2015-Jun-29 16:29N 44°19' E 008°30'0 0.0
2015-Jun-29 15:26N 44°19' E 008°30'0 0.0
2015-Jun-29 14:32N 44°19' E 008°30'0 0.0
2015-Jun-29 13:32N 44°19' E 008°30'0 0.0
2015-Jun-29 12:29N 44°19' E 008°30'0 0.0
2015-Jun-29 11:32N 44°19' E 008°30'0 0.0
2015-Jun-29 10:32N 44°19' E 008°30'0 0.0
2015-Jun-29 09:32N 44°19' E 008°30'0 0.0
2015-Jun-29 08:32N 44°19' E 008°30'0 0.0
2015-Jun-29 07:29N 44°19' E 008°30'0 0.0
2015-Jun-29 06:26N 44°19' E 008°30'0 0.0
2015-Jun-29 05:32N 44°19' E 008°30'0 0.0
2015-Jun-29 04:32N 44°19' E 008°30'0 0.0
2015-Jun-29 03:32N 44°19' E 008°30'0 0.0
2015-Jun-29 02:32N 44°19' E 008°30'0 0.0
2015-Jun-29 01:29N 44°19' E 008°30'0 0.0
2015-Jun-29 00:29N 44°19' E 008°30'0 0.0
2015-Jun-28 23:32N 44°19' E 008°30'0 0.0
2015-Jun-28 22:32N 44°19' E 008°30'0 0.0
2015-Jun-28 21:32N 44°19' E 008°30'0 0.0
2015-Jun-28 20:32N 44°19' E 008°30'0 0.0
2015-Jun-28 19:32N 44°19' E 008°30'0 0.0
2015-Jun-28 18:32N 44°19' E 008°30'0 0.0
2015-Jun-28 17:32N 44°19' E 008°30'1 0.6
2015-Jun-28 16:33N 44°19' E 008°31'1817.9
2015-Jun-28 15:33N 44°02' E 008°21'1919.2
2015-Jun-28 14:33N 43°48' E 008°04'1919.0
2015-Jun-28 13:34N 43°35' E 007°44'2019.1
2015-Jun-28 12:31N 43°23' E 007°23'5619.0
2015-Jun-28 09:33N 42°50' E 006°20'1919.2
2015-Jun-28 08:33N 42°40' E 005°57'2019.2
2015-Jun-28 07:30N 42°30' E 005°33'1819.0
2015-Jun-28 06:32N 42°22' E 005°11'2019.1
2015-Jun-28 05:30N 42°13' E 004°47'2019.3
2015-Jun-28 04:28N 42°04' E 004°24'3719.1
2015-Jun-28 02:32N 41°49' E 003°38'1918.8
2015-Jun-28 01:32N 41°41' E 003°16'1919.6
2015-Jun-28 00:33N 41°32' E 002°53'2019.7
2015-Jun-27 23:31N 41°23' E 002°28'1414.8
2015-Jun-27 22:33N 41°19' E 002°10'2 0.4
2015-Jun-27 16:31N 41°22' E 002°11'4 4.7
2015-Jun-27 15:33N 41°18' E 002°14'1817.6
2015-Jun-27 14:32N 41°27' E 002°35'2019.2
2015-Jun-27 13:29N 41°36' E 002°59'1819.2
2015-Jun-27 12:33N 41°44' E 003°21'2020.0
2015-Jun-27 11:33N 41°52' E 003°44'2019.5
2015-Jun-27 10:33N 42°01' E 004°08'1919.5
2015-Jun-27 09:34N 42°09' E 004°32'2019.6
2015-Jun-27 08:33N 42°18' E 004°55'1919.3
2015-Jun-27 07:33N 42°27' E 005°19'1919.2
2015-Jun-27 06:34N 42°36' E 005°42'2019.6
2015-Jun-27 05:33N 42°45' E 006°05'2319.9
2015-Jun-27 04:23N 42°56' E 006°33'1719.9
2015-Jun-27 03:33N 43°06' E 006°52'2019.7
2015-Jun-27 02:34N 43°18' E 007°13'2019.6
2015-Jun-27 01:33N 43°30' E 007°34'2019.9
2015-Jun-27 00:33N 43°43' E 007°55'2019.7
2015-Jun-26 23:33N 43°56' E 008°16'2019.7
2015-Jun-26 22:33N 44°13' E 008°30'6 6.1
2015-Jun-26 21:33N 44°19' E 008°30'0 0.0
2015-Jun-26 20:33N 44°19' E 008°30'0 0.0
2015-Jun-26 19:33N 44°19' E 008°30'0 0.0
2015-Jun-26 18:33N 44°19' E 008°30'0 0.0
2015-Jun-26 17:33N 44°19' E 008°30'0 0.0
2015-Jun-26 16:33N 44°19' E 008°30'2 2.2
2015-Jun-26 15:33N 44°17' E 008°31'2019.9
2015-Jun-26 14:33N 43°59' E 008°18'2919.9
2015-Jun-26 13:07N 43°38' E 007°51'1720.0
2015-Jun-26 12:16N 43°26' E 007°35'1420.2
2015-Jun-26 11:33N 43°17' E 007°20'2019.9
2015-Jun-26 10:33N 43°04' E 006°59'6819.6
2015-Jun-26 07:04N 42°29' E 005°39'1020.1
2015-Jun-26 06:33N 42°25' E 005°26'2020.1
2015-Jun-26 05:33N 42°17' E 005°02'2020.5
2015-Jun-26 04:33N 42°08' E 004°37'2020.3
2015-Jun-26 03:33N 41°59' E 004°12'2120.4
2015-Jun-26 02:33N 41°50' E 003°47'2019.9
2015-Jun-26 01:34N 41°42' E 003°23'2020.0
2015-Jun-26 00:33N 41°33' E 002°59'2020.1
2015-Jun-25 23:33N 41°24' E 002°35'1918.6
2015-Jun-25 22:30N 41°17' E 002°11'4 1.1
2015-Jun-25 18:16N 41°22' E 002°11'0 0.0
2015-Jun-25 17:26N 41°22' E 002°11'0 0.2
2015-Jun-25 16:33N 41°22' E 002°11'1010.0
2015-Jun-25 15:32N 41°22' E 002°24'2020.7
2015-Jun-25 14:33N 41°31' E 002°49'2120.6
2015-Jun-25 13:32N 41°40' E 003°14'2121.1
2015-Jun-25 12:33N 41°50' E 003°38'2120.8
2015-Jun-25 11:33N 41°59' E 004°03'2120.6
2015-Jun-25 10:33N 42°09' E 004°28'2120.5
2015-Jun-25 09:33N 42°18' E 004°53'2020.6
2015-Jun-25 08:33N 42°27' E 005°18'2020.6
2015-Jun-25 07:34N 42°36' E 005°42'8521.2
2015-Jun-25 03:33N 43°22' E 007°20'4721.4
2015-Jun-25 01:22N 43°51' E 008°11'1721.2
2015-Jun-25 00:33N 44°05' E 008°24'1413.7
2015-Jun-24 23:33N 44°19' E 008°30'0 0.0
2015-Jun-24 22:33N 44°19' E 008°30'0 0.0
2015-Jun-24 21:33N 44°19' E 008°30'0 0.0
2015-Jun-24 20:33N 44°19' E 008°30'0 0.0
2015-Jun-24 19:33N 44°19' E 008°30'0 0.0
2015-Jun-24 18:33N 44°19' E 008°30'0 0.0
2015-Jun-24 17:33N 44°19' E 008°30'2 1.5
2015-Jun-24 16:34N 44°18' E 008°31'2019.6
2015-Jun-24 15:31N 43°60' E 008°18'1919.3
2015-Jun-24 14:34N 43°46' E 008°00'1919.1
2015-Jun-24 13:33N 43°34' E 007°40'1918.9
2015-Jun-24 12:33N 43°21' E 007°20'7718.7
2015-Jun-24 08:26N 42°43' E 005°49'1719.1
2015-Jun-24 07:33N 42°38' E 005°27'1919.0
2015-Jun-24 06:32N 42°34' E 005°01'11018.4
2015-Jun-24 00:32N 41°37' E 002°54'2019.6
2015-Jun-23 23:29N 41°26' E 002°31'1818.8
2015-Jun-23 22:33N 41°17' E 002°11'5 3.5
2015-Jun-23 21:05N 41°22' E 002°11'0 0.0
2015-Jun-23 19:30N 41°22' E 002°11'0 0.0
2015-Jun-23 19:00N 41°22' E 002°11'33014.1
2015-Jun-22 19:33N 44°19' E 008°30'0 0.0
2015-Jun-22 18:30N 44°19' E 008°30'0 0.0
2015-Jun-22 17:24N 44°19' E 008°30'0 0.0
2015-Jun-22 16:33N 44°19' E 008°30'0 0.0
2015-Jun-22 15:33N 44°19' E 008°30'0 0.0
2015-Jun-22 14:30N 44°19' E 008°30'0 0.0
2015-Jun-22 13:30N 44°19' E 008°30'0 0.0
2015-Jun-22 12:30N 44°19' E 008°30'0 0.0
2015-Jun-22 11:24N 44°19' E 008°30'0 0.0
2015-Jun-22 10:30N 44°19' E 008°30'0 0.0
2015-Jun-22 09:33N 44°19' E 008°30'0 0.0
2015-Jun-22 08:33N 44°19' E 008°30'0 0.0
2015-Jun-22 07:33N 44°19' E 008°30'0 0.0
2015-Jun-22 06:33N 44°19' E 008°30'0 0.0
2015-Jun-22 05:33N 44°19' E 008°30'0 0.0
2015-Jun-22 04:15N 44°19' E 008°30'0 0.0
2015-Jun-22 03:33N 44°19' E 008°30'0 0.0
2015-Jun-22 02:33N 44°19' E 008°30'0 0.0
2015-Jun-22 01:33N 44°19' E 008°30'0 0.0
2015-Jun-22 00:33N 44°19' E 008°30'0 0.0
2015-Jun-21 23:30N 44°19' E 008°30'0 0.0
2015-Jun-21 22:33N 44°19' E 008°30'0 0.0
2015-Jun-21 21:27N 44°19' E 008°30'0 0.0
2015-Jun-21 20:33N 44°19' E 008°30'0 0.0
2015-Jun-21 19:33N 44°19' E 008°30'0 0.0
2015-Jun-21 18:33N 44°19' E 008°30'0 0.0
2015-Jun-21 17:33N 44°19' E 008°30'3 2.7
2015-Jun-21 16:33N 44°16' E 008°31'2019.9
2015-Jun-21 15:34N 43°59' E 008°19'1919.5
2015-Jun-21 14:34N 43°46' E 007°59'2319.8
2015-Jun-21 13:23N 43°31' E 007°34'9619.0
2015-Jun-21 08:19N 42°44' E 005°40'1520.0
2015-Jun-21 07:33N 42°39' E 005°20'2019.8
2015-Jun-21 06:33N 42°33' E 004°54'9218.3
2015-Jun-21 01:32N 41°44' E 003°09'1919.2
2015-Jun-21 00:34N 41°34' E 002°48'2119.3
2015-Jun-20 23:28N 41°23' E 002°24'1111.2
2015-Jun-20 22:30N 41°21' E 002°10'1 1.3
2015-Jun-20 21:33N 41°22' E 002°11'0 0.0
2015-Jun-20 20:33N 41°22' E 002°11'0 0.0
2015-Jun-20 19:31N 41°22' E 002°11'  
Track history (hours):
 
Tides and Currents Weather Stations Pressure Air Temp Water Temp Dewpoint Dewpoint Depression Visibility Wind Speed Wind Dir Waves Ship Positions

Florencia

Last reported at 2015-Jun-30 19:13 UTC. Time now 2015-Jun-30 21:21 UTC.
Position N 41°22' E 002°11'.

Length 186 m; draft 6.2 m.

Type: Passenger vessel. MMSI: 247105900.

Date/timePositionNaut miles runAvg speedWind from/ knotsBaromVisibWave heightAir tempDewpointWater temp
2015-Jun-30 19:13N 41°22' E 002°11'0 0.0
2015-Jun-30 16:16N 41°22' E 002°11'4 4.9
2015-Jun-30 15:33N 41°18' E 002°11'1717.0
2015-Jun-30 14:32N 41°25' E 002°32'1919.0
2015-Jun-30 13:33N 41°34' E 002°54'1919.1
2015-Jun-30 12:34N 41°42' E 003°17'2019.8
2015-Jun-30 11:33N 41°51' E 003°41'1919.5
2015-Jun-30 10:33N 41°60' E 004°04'1919.1
2015-Jun-30 09:33N 42°08' E 004°27'1919.3
2015-Jun-30 08:33N 42°17' E 004°51'2019.7
2015-Jun-30 07:33N 42°26' E 005°14'2019.7
2015-Jun-30 06:33N 42°34' E 005°38'2019.9
2015-Jun-30 05:33N 42°44' E 006°02'6820.2
2015-Jun-30 02:12N 43°22' E 007°18'1420.3
2015-Jun-30 01:29N 43°31' E 007°34'1920.3
2015-Jun-30 00:33N 43°43' E 007°55'2120.6
2015-Jun-29 23:33N 43°56' E 008°16'2020.2
2015-Jun-29 22:33N 44°13' E 008°31'5 5.1
2015-Jun-29 21:32N 44°19' E 008°30'0 0.0
2015-Jun-29 20:32N 44°19' E 008°30'0 0.0
2015-Jun-29 19:32N 44°19' E 008°30'0 0.0
2015-Jun-29 18:32N 44°19' E 008°30'0 0.0
2015-Jun-29 17:32N 44°19' E 008°30'0 0.0
2015-Jun-29 16:29N 44°19' E 008°30'0 0.0
2015-Jun-29 15:26N 44°19' E 008°30'0 0.0
2015-Jun-29 14:32N 44°19' E 008°30'0 0.0
2015-Jun-29 13:32N 44°19' E 008°30'0 0.0
2015-Jun-29 12:29N 44°19' E 008°30'0 0.0
2015-Jun-29 11:32N 44°19' E 008°30'0 0.0
2015-Jun-29 10:32N 44°19' E 008°30'0 0.0
2015-Jun-29 09:32N 44°19' E 008°30'0 0.0
2015-Jun-29 08:32N 44°19' E 008°30'0 0.0
2015-Jun-29 07:29N 44°19' E 008°30'0 0.0
2015-Jun-29 06:26N 44°19' E 008°30'0 0.0
2015-Jun-29 05:32N 44°19' E 008°30'0 0.0
2015-Jun-29 04:32N 44°19' E 008°30'0 0.0
2015-Jun-29 03:32N 44°19' E 008°30'0 0.0
2015-Jun-29 02:32N 44°19' E 008°30'0 0.0
2015-Jun-29 01:29N 44°19' E 008°30'0 0.0
2015-Jun-29 00:29N 44°19' E 008°30'0 0.0
2015-Jun-28 23:32N 44°19' E 008°30'0 0.0
2015-Jun-28 22:32N 44°19' E 008°30'0 0.0
2015-Jun-28 21:32N 44°19' E 008°30'0 0.0
2015-Jun-28 20:32N 44°19' E 008°30'0 0.0
2015-Jun-28 19:32N 44°19' E 008°30'0 0.0
2015-Jun-28 18:32N 44°19' E 008°30'0 0.0
2015-Jun-28 17:32N 44°19' E 008°30'1 0.6
2015-Jun-28 16:33N 44°19' E 008°31'1817.9
2015-Jun-28 15:33N 44°02' E 008°21'1919.2
2015-Jun-28 14:33N 43°48' E 008°04'1919.0
2015-Jun-28 13:34N 43°35' E 007°44'2019.1
2015-Jun-28 12:31N 43°23' E 007°23'5619.0
2015-Jun-28 09:33N 42°50' E 006°20'1919.2
2015-Jun-28 08:33N 42°40' E 005°57'2019.2
2015-Jun-28 07:30N 42°30' E 005°33'1819.0
2015-Jun-28 06:32N 42°22' E 005°11'2019.1
2015-Jun-28 05:30N 42°13' E 004°47'2019.3
2015-Jun-28 04:28N 42°04' E 004°24'3719.1
2015-Jun-28 02:32N 41°49' E 003°38'1918.8
2015-Jun-28 01:32N 41°41' E 003°16'1919.6
2015-Jun-28 00:33N 41°32' E 002°53'2019.7
2015-Jun-27 23:31N 41°23' E 002°28'1414.8
2015-Jun-27 22:33N 41°19' E 002°10'2 0.4
2015-Jun-27 16:31N 41°22' E 002°11'4 4.7
2015-Jun-27 15:33N 41°18' E 002°14'1817.6
2015-Jun-27 14:32N 41°27' E 002°35'2019.2
2015-Jun-27 13:29N 41°36' E 002°59'1819.2
2015-Jun-27 12:33N 41°44' E 003°21'2020.0
2015-Jun-27 11:33N 41°52' E 003°44'2019.5
2015-Jun-27 10:33N 42°01' E 004°08'1919.5
2015-Jun-27 09:34N 42°09' E 004°32'2019.6
2015-Jun-27 08:33N 42°18' E 004°55'1919.3
2015-Jun-27 07:33N 42°27' E 005°19'1919.2
2015-Jun-27 06:34N 42°36' E 005°42'2019.6
2015-Jun-27 05:33N 42°45' E 006°05'2319.9
2015-Jun-27 04:23N 42°56' E 006°33'1719.9
2015-Jun-27 03:33N 43°06' E 006°52'2019.7
2015-Jun-27 02:34N 43°18' E 007°13'2019.6
2015-Jun-27 01:33N 43°30' E 007°34'2019.9
2015-Jun-27 00:33N 43°43' E 007°55'2019.7
2015-Jun-26 23:33N 43°56' E 008°16'2019.7
2015-Jun-26 22:33N 44°13' E 008°30'6 6.1
2015-Jun-26 21:33N 44°19' E 008°30'0 0.0
2015-Jun-26 20:33N 44°19' E 008°30'0 0.0
2015-Jun-26 19:33N 44°19' E 008°30'0 0.0
2015-Jun-26 18:33N 44°19' E 008°30'0 0.0
2015-Jun-26 17:33N 44°19' E 008°30'0 0.0
2015-Jun-26 16:33N 44°19' E 008°30'2 2.2
2015-Jun-26 15:33N 44°17' E 008°31'2019.9
2015-Jun-26 14:33N 43°59' E 008°18'2919.9
2015-Jun-26 13:07N 43°38' E 007°51'1720.0
2015-Jun-26 12:16N 43°26' E 007°35'1420.2
2015-Jun-26 11:33N 43°17' E 007°20'2019.9
2015-Jun-26 10:33N 43°04' E 006°59'6819.6
2015-Jun-26 07:04N 42°29' E 005°39'1020.1
2015-Jun-26 06:33N 42°25' E 005°26'2020.1
2015-Jun-26 05:33N 42°17' E 005°02'2020.5
2015-Jun-26 04:33N 42°08' E 004°37'2020.3
2015-Jun-26 03:33N 41°59' E 004°12'2120.4
2015-Jun-26 02:33N 41°50' E 003°47'2019.9
2015-Jun-26 01:34N 41°42' E 003°23'2020.0
2015-Jun-26 00:33N 41°33' E 002°59'2020.1
2015-Jun-25 23:33N 41°24' E 002°35'1918.6
2015-Jun-25 22:30N 41°17' E 002°11'4 1.1
2015-Jun-25 18:16N 41°22' E 002°11'0 0.0
2015-Jun-25 17:26N 41°22' E 002°11'0 0.2
2015-Jun-25 16:33N 41°22' E 002°11'1010.0
2015-Jun-25 15:32N 41°22' E 002°24'2020.7
2015-Jun-25 14:33N 41°31' E 002°49'2120.6
2015-Jun-25 13:32N 41°40' E 003°14'2121.1
2015-Jun-25 12:33N 41°50' E 003°38'2120.8
2015-Jun-25 11:33N 41°59' E 004°03'2120.6
2015-Jun-25 10:33N 42°09' E 004°28'2120.5
2015-Jun-25 09:33N 42°18' E 004°53'2020.6
2015-Jun-25 08:33N 42°27' E 005°18'2020.6
2015-Jun-25 07:34N 42°36' E 005°42'8521.2
2015-Jun-25 03:33N 43°22' E 007°20'4721.4
2015-Jun-25 01:22N 43°51' E 008°11'1721.2
2015-Jun-25 00:33N 44°05' E 008°24'1413.7
2015-Jun-24 23:33N 44°19' E 008°30'0 0.0
2015-Jun-24 22:33N 44°19' E 008°30'0 0.0
2015-Jun-24 21:33N 44°19' E 008°30'0 0.0
2015-Jun-24 20:33N 44°19' E 008°30'0 0.0
2015-Jun-24 19:33N 44°19' E 008°30'0 0.0
2015-Jun-24 18:33N 44°19' E 008°30'0 0.0
2015-Jun-24 17:33N 44°19' E 008°30'2 1.5
2015-Jun-24 16:34N 44°18' E 008°31'2019.6
2015-Jun-24 15:31N 43°60' E 008°18'1919.3
2015-Jun-24 14:34N 43°46' E 008°00'1919.1
2015-Jun-24 13:33N 43°34' E 007°40'1918.9
2015-Jun-24 12:33N 43°21' E 007°20'7718.7
2015-Jun-24 08:26N 42°43' E 005°49'1719.1
2015-Jun-24 07:33N 42°38' E 005°27'1919.0
2015-Jun-24 06:32N 42°34' E 005°01'11018.4
2015-Jun-24 00:32N 41°37' E 002°54'2019.6
2015-Jun-23 23:29N 41°26' E 002°31'1818.8
2015-Jun-23 22:33N 41°17' E 002°11'5 3.5
2015-Jun-23 21:05N 41°22' E 002°11'0 0.0
2015-Jun-23 19:30N 41°22' E 002°11'0 0.0
2015-Jun-23 19:00N 41°22' E 002°11'33014.1
2015-Jun-22 19:33N 44°19' E 008°30'0 0.0
2015-Jun-22 18:30N 44°19' E 008°30'0 0.0
2015-Jun-22 17:24N 44°19' E 008°30'0 0.0
2015-Jun-22 16:33N 44°19' E 008°30'0 0.0
2015-Jun-22 15:33N 44°19' E 008°30'0 0.0
2015-Jun-22 14:30N 44°19' E 008°30'0 0.0
2015-Jun-22 13:30N 44°19' E 008°30'0 0.0
2015-Jun-22 12:30N 44°19' E 008°30'0 0.0
2015-Jun-22 11:24N 44°19' E 008°30'0 0.0
2015-Jun-22 10:30N 44°19' E 008°30'0 0.0
2015-Jun-22 09:33N 44°19' E 008°30'0 0.0
2015-Jun-22 08:33N 44°19' E 008°30'0 0.0
2015-Jun-22 07:33N 44°19' E 008°30'0 0.0
2015-Jun-22 06:33N 44°19' E 008°30'0 0.0
2015-Jun-22 05:33N 44°19' E 008°30'0 0.0
2015-Jun-22 04:15N 44°19' E 008°30'0 0.0
2015-Jun-22 03:33N 44°19' E 008°30'0 0.0
2015-Jun-22 02:33N 44°19' E 008°30'0 0.0
2015-Jun-22 01:33N 44°19' E 008°30'0 0.0
2015-Jun-22 00:33N 44°19' E 008°30'0 0.0
2015-Jun-21 23:30N 44°19' E 008°30'0 0.0
2015-Jun-21 22:33N 44°19' E 008°30'0 0.0
2015-Jun-21 21:27N 44°19' E 008°30'0 0.0
2015-Jun-21 20:33N 44°19' E 008°30'0 0.0
2015-Jun-21 19:33N 44°19' E 008°30'0 0.0
2015-Jun-21 18:33N 44°19' E 008°30'0 0.0
2015-Jun-21 17:33N 44°19' E 008°30'3 2.7
2015-Jun-21 16:33N 44°16' E 008°31'2019.9
2015-Jun-21 15:34N 43°59' E 008°19'1919.5
2015-Jun-21 14:34N 43°46' E 007°59'2319.8
2015-Jun-21 13:23N 43°31' E 007°34'9619.0
2015-Jun-21 08:19N 42°44' E 005°40'1520.0
2015-Jun-21 07:33N 42°39' E 005°20'2019.8
2015-Jun-21 06:33N 42°33' E 004°54'9218.3
2015-Jun-21 01:32N 41°44' E 003°09'1919.2
2015-Jun-21 00:34N 41°34' E 002°48'2119.3
2015-Jun-20 23:28N 41°23' E 002°24'1111.2
2015-Jun-20 22:30N 41°21' E 002°10'1 1.3
2015-Jun-20 21:33N 41°22' E 002°11'0 0.0
2015-Jun-20 20:33N 41°22' E 002°11'0 0.0
2015-Jun-20 19:31N 41°22' E 002°11'  

Dump ship's entire track history